This is the latest recevied weather packets stored in our database for station/object DB0BGL. If no packets are shown the sender has not sent any weather packets the latest 10 day(s).
| Time | Temp. | Humidity | Pressure | Rain* | Wind** | Luminosity | Snow |
|---|---|---|---|---|---|---|---|
| 1777719243 | 13.33° C | 32% | 0 hPa | 0 mm | - | - | - |
| 1777718719 | 13.33° C | 32% | 0 hPa | 0 mm | - | - | - |
| 1777718643 | 13.33° C | 32% | 0 hPa | 0 mm | - | - | - |
| 1777718042 | 13.89° C | 35% | 0 hPa | 0 mm | - | - | - |
| 1777717442 | 13.89° C | 35% | 0 hPa | 0 mm | - | - | - |
| 1777716841 | 13.89° C | 34% | 0 hPa | 0 mm | - | - | - |
| 1777716241 | 13.89° C | 34% | 0 hPa | 0 mm | - | - | - |
| 1777715640 | 15° C | 33% | 0 hPa | 0 mm | - | - | - |
| 1777715039 | 15° C | 31% | 0 hPa | 0 mm | - | - | - |
| 1777714439 | 16.11° C | 31% | 0 hPa | 0 mm | - | - | - |
| 1777713838 | 17.22° C | 30% | 0 hPa | 0 mm | - | - | - |
| 1777713238 | 17.22° C | 31% | 0 hPa | 0 mm | - | - | - |
| 1777712638 | 17.22° C | 31% | 0 hPa | 0 mm | - | - | - |
| 1777712068 | 18.33° C | 29% | 0 hPa | 0 mm | - | - | - |
| 1777712036 | 18.33° C | 29% | 0 hPa | 0 mm | - | - | - |
| 1777711436 | 18.89° C | 29% | 0 hPa | 0 mm | - | - | - |
| 1777710835 | 18.89° C | 27% | 0 hPa | 0 mm | - | - | - |
| 1777710235 | 19.44° C | 26% | 0 hPa | 0 mm | - | - | - |
| 1777709634 | 20° C | 25% | 0 hPa | 0 mm | - | - | - |
| 1777709034 | 19.44° C | 27% | 0 hPa | 0 mm | - | - | - |
| 1777708433 | 18.89° C | 29% | 0 hPa | 0 mm | - | - | - |
| 1777707833 | 17.78° C | 31% | 0 hPa | 0 mm | - | - | - |
| 1777707232 | 16.67° C | 32% | 0 hPa | 0 mm | - | - | - |
| 1777706632 | 17.78° C | 29% | 0 hPa | 0 mm | - | - | - |
| 1777706031 | 19.44° C | 26% | 0 hPa | 0 mm | - | - | - |
* Rain latest hour (hover to see other rain measurements)
** Current wind speed in m/s (hover to see current wind gust speed)